Bishops Head, MD NWLON current weather conditions

sailwx.info

Wind from 029 at 0 knots gusting 1

Air temperature 5.0° C
Water temperature 7.2° C

Last reported at 2017-Nov-24 07:00 UTC.
Time now 2017-Nov-24 07:34 UTC

Location: N 38°13' W 076°02'.
View on Google Maps.

See reports from other nearby stations

  
Tides and Currents Weather Stations Pressure Air Temp Water Temp Dewpoint Dewpoint Depression Visibility Wind Speed Wind Dir Waves Ship Positions
date/time (UTC)wind fromknots sea level pressurealtimeterstation pressurevisibilityair tempwater tempwave heightnotes
2017-Nov-24 07:00 029 0 gusting 1 5.0 7.2
2017-Nov-24 06:48 018 1 gusting 3 5.0 7.2
2017-Nov-24 06:42 013 2 gusting 3 5.0 7.8
2017-Nov-24 06:36 006 3 gusting 3 5.0 7.8
2017-Nov-24 06:30 005 1 gusting 3 5.0 7.8
2017-Nov-24 06:24 004 2 gusting 3 5.0 7.8
2017-Nov-24 06:18 004 2 gusting 3 5.0 7.8
2017-Nov-24 06:12 004 3 gusting 3 5.0 7.8
2017-Nov-24 06:06 004 3 gusting 3 5.0 7.8
2017-Nov-24 06:00 004 3 gusting 3 5.0 7.8
2017-Nov-24 05:54 5.0 7.8
2017-Nov-24 05:48 346 2 gusting 4 5.0 7.8
2017-Nov-24 05:42 331 3 gusting 4 5.0 7.8
2017-Nov-24 05:36 332 3 gusting 4 5.0 7.8
2017-Nov-24 05:30 344 3 gusting 3 5.0 7.8
2017-Nov-24 05:24 342 1 gusting 2 5.0 7.8
2017-Nov-24 05:18 348 1 gusting 2 5.0 7.8
2017-Nov-24 05:12 007 2 gusting 2 5.0 7.8
2017-Nov-24 05:06 355 2 gusting 3 5.0 7.8
2017-Nov-24 05:00 342 2 gusting 3 5.0 7.8
2017-Nov-24 04:54 324 3 gusting 3 5.0 7.8
2017-Nov-24 04:48 335 2 gusting 2 5.0 7.8
2017-Nov-24 04:42 333 1 gusting 2 5.0 7.8
2017-Nov-24 04:36 327 2 gusting 3 5.0 7.8
2017-Nov-24 04:30 329 1 gusting 3 5.0 7.8
2017-Nov-24 04:24 320 2 gusting 6 5.0 7.8
2017-Nov-24 04:18 261 6 gusting 6 6.7 7.8
2017-Nov-24 04:12 313 2 gusting 3 4.4 7.8
2017-Nov-24 04:06 314 2 gusting 5 5.0 7.8
2017-Nov-24 04:00 312 3 gusting 5 4.4 7.8
2017-Nov-24 03:54 313 3 gusting 5 4.4 7.8
2017-Nov-24 03:48 314 4 gusting 6 5.0 7.8
2017-Nov-24 03:42 312 3 gusting 7 5.0 7.8
2017-Nov-24 03:36 286 6 gusting 8 6.7 7.8
2017-Nov-24 03:30 279 6 gusting 7 6.7 7.8
2017-Nov-24 03:24 279 6 gusting 8 6.7 7.8
2017-Nov-24 03:18 277 6 gusting 8 6.7 7.8
2017-Nov-24 03:12 275 6 gusting 8 6.7 7.8
2017-Nov-24 03:06 261 6 gusting 8 6.7 7.8
2017-Nov-24 03:00 269 6 gusting 9 6.7 7.8
2017-Nov-24 02:54 291 5 gusting 9 5.6 7.8
2017-Nov-24 02:48 317 4 gusting 6 4.4 7.8
2017-Nov-24 02:42 315 4 gusting 7 4.4 7.8
2017-Nov-24 02:36 320 4 gusting 4 4.4 7.8
2017-Nov-24 02:30 322 4 gusting 5 5.0 7.8
2017-Nov-24 02:24 318 4 gusting 5 5.0 7.8
2017-Nov-24 02:18 318 5 gusting 6 5.0 7.8
2017-Nov-24 02:12 290 5 gusting 6 6.1 7.8
2017-Nov-24 02:06 286 2 gusting 3 5.6 7.8
2017-Nov-24 02:00 334 5.0 7.8
2017-Nov-24 01:54 324 0 gusting 2 5.0 8.3
2017-Nov-24 01:48 144 0 gusting 2 5.6 8.3
2017-Nov-24 01:42 188 1 gusting 2 5.6 8.3
2017-Nov-24 01:36 169 0 gusting 3 5.6 8.3
2017-Nov-24 01:30 163 0 gusting 1 5.6 8.3
2017-Nov-24 01:24 160 0 gusting 2 5.6 8.3
2017-Nov-24 01:18 171 2 gusting 3 5.6 8.3
2017-Nov-24 01:12 167 2 gusting 3 5.6 8.3
2017-Nov-24 01:06 162 3 gusting 3 5.6 8.3
2017-Nov-24 01:00 167 2 gusting 2 5.0 8.3
2017-Nov-24 00:54 168 2 gusting 3 5.0 8.3
2017-Nov-24 00:48 181 1 gusting 1 5.0 8.3
2017-Nov-24 00:42 195 0 gusting 0 5.0 8.3
2017-Nov-24 00:36 208 0 gusting 1 5.0 8.3
2017-Nov-24 00:30 209 1 gusting 2 5.0 8.3
2017-Nov-24 00:24 211 1 gusting 2 5.0 8.3
2017-Nov-24 00:18 234 1 gusting 2 5.0 8.3
2017-Nov-24 00:12 235 1 gusting 3 4.4 8.3
2017-Nov-24 00:06 199 2 gusting 3 4.4 8.3
2017-Nov-23 23:48 175 1 gusting 2 4.4 8.3
2017-Nov-23 23:42 218 1 gusting 3 4.4 8.3
2017-Nov-23 23:36 224 1 gusting 2 4.4 8.3
2017-Nov-23 23:30 214 1 gusting 2 4.4 8.3
2017-Nov-23 23:24 208 1 gusting 3 4.4 8.3
2017-Nov-23 23:18 236 2 gusting 3 4.4 8.3
2017-Nov-23 23:12 227 2 gusting 3 4.4 8.3
2017-Nov-23 23:06 211 2 gusting 3 4.4 8.3
2017-Nov-23 23:00 217 2 gusting 3 4.4 8.3
2017-Nov-23 22:54 210 1 gusting 3 4.4 8.3
2017-Nov-23 22:48 205 1 gusting 2 4.4 8.3
2017-Nov-23 22:42 204 1 gusting 2 4.4 8.3
2017-Nov-23 22:36 184 1 gusting 2 4.4 8.3
2017-Nov-23 22:30 181 1 gusting 2 4.4 8.3
2017-Nov-23 22:24 130 1 gusting 3 4.4 8.3
2017-Nov-23 22:18 189 2 gusting 3 4.4 8.3
2017-Nov-23 22:12 161 1 gusting 3 4.4 8.3
2017-Nov-23 22:06 160 1 gusting 1 4.4 8.3
2017-Nov-23 22:00 094 0 gusting 1 3.9 8.3
2017-Nov-23 21:54 077 1 gusting 1 4.4 8.3
2017-Nov-23 21:48 117 0 gusting 1 4.4 8.3
2017-Nov-23 21:42 120 0 gusting 1 4.4 8.3
2017-Nov-23 21:36 168 1 gusting 3 4.4 8.3
2017-Nov-23 21:30 209 1 gusting 2 5.0 8.3
2017-Nov-23 21:24 242 1 gusting 2 5.0 8.3
2017-Nov-23 21:18 219 2 gusting 3 5.6 8.3
2017-Nov-23 21:12 177 1 gusting 2 5.0 8.3
2017-Nov-23 21:06 204 0 gusting 1 5.6 8.3
2017-Nov-23 21:00 198 0 gusting 4 5.0 8.3
2017-Nov-23 20:54 165 1 gusting 2 5.0 8.3
2017-Nov-23 20:48 190 2 gusting 3 4.4 8.3
2017-Nov-23 20:42 213 3 gusting 4 3.3 8.3
2017-Nov-23 20:36 235 2 gusting 4 3.9 8.3
2017-Nov-23 20:30 218 3 gusting 4 4.4 8.3
2017-Nov-23 20:24 257 3 gusting 5 4.4 8.3
2017-Nov-23 20:18 264 4 gusting 6 3.9 8.3
2017-Nov-23 20:12 270 4 gusting 7 3.9 8.3
2017-Nov-23 20:06 271 3 gusting 6 3.9 8.3
2017-Nov-23 20:00 262 4 gusting 6 3.9 8.3
2017-Nov-23 19:54 268 5 gusting 6 3.9 8.3
2017-Nov-23 19:48 255 5 gusting 7 3.9 8.3
2017-Nov-23 19:42 294 6 gusting 7 3.9 8.3
2017-Nov-23 19:36 266 5 gusting 6 3.9 8.3
2017-Nov-23 19:30 270 5 gusting 7 3.9 8.3
2017-Nov-23 19:24 263 6 gusting 7 3.3 8.3
2017-Nov-23 19:18 282 6 gusting 8 3.3 8.3
2017-Nov-23 19:12 289 6 gusting 8 3.3 8.3
2017-Nov-23 19:06 291 7 gusting 9 3.3 8.3
2017-Nov-23 19:00 278 7 gusting 11 3.3 8.3
2017-Nov-23 18:54 286 8 gusting 9 3.3 8.3
2017-Nov-23 18:48 279 8 gusting 10 3.3 8.3
2017-Nov-23 18:42 283 8 gusting 9 3.3 8.3
2017-Nov-23 18:36 282 6 gusting 8 3.3 8.3
2017-Nov-23 18:30 285 6 gusting 7 3.3 8.3
2017-Nov-23 18:24 292 7 gusting 10 3.3 8.3
2017-Nov-23 18:18 284 7 gusting 9 3.3 7.8
2017-Nov-23 18:12 280 6 gusting 9 3.3 7.8
2017-Nov-23 18:06 278 8 gusting 9 2.8 7.8
2017-Nov-23 18:00 280 6 gusting 9 3.3 8.3
2017-Nov-23 17:54 286 8 gusting 10 2.8 8.3
2017-Nov-23 17:48 280 9 gusting 10 2.8 8.3
2017-Nov-23 17:42 282 6 gusting 8 3.3 8.3
2017-Nov-23 17:36 276 7 gusting 11 2.8 8.3
2017-Nov-23 17:30 277 8 gusting 10 2.8 8.3
2017-Nov-23 17:24 296 6 gusting 9 3.3 8.3
2017-Nov-23 17:18 284 8 gusting 10 3.3 8.3
2017-Nov-23 17:12 291 8 gusting 10 2.8 8.3
2017-Nov-23 17:06 298 6 gusting 9 3.3 8.3
2017-Nov-23 17:00 302 7 gusting 12 3.3 8.3
2017-Nov-23 16:54 286 7 gusting 8 2.8 8.3
2017-Nov-23 16:48 305 5 gusting 8 3.3 8.3
2017-Nov-23 16:42 336 4 gusting 6 3.3 8.3
2017-Nov-23 16:36 338 4 gusting 5 3.3 8.3
2017-Nov-23 16:30 326 3 gusting 7 3.3 8.3
2017-Nov-23 16:24 351 5 gusting 9 3.3 8.3
2017-Nov-23 16:18 323 7 gusting 8 3.3 7.8
2017-Nov-23 16:12 338 6 gusting 8 3.3 7.8
2017-Nov-23 16:06 307 5 gusting 8 3.3 7.8
2017-Nov-23 16:00 327 4 gusting 14 3.3 7.8
2017-Nov-23 15:54 313 5 gusting 10 3.3 7.8
2017-Nov-23 15:48 344 4 gusting 13 3.3 7.8
2017-Nov-23 15:42 299 7 gusting 7 3.3 7.8
2017-Nov-23 15:36 313 7 gusting 11 3.3 7.8
2017-Nov-23 15:30 299 4 gusting 10 2.8 7.8
2017-Nov-23 15:24 338 7 gusting 11 3.3 7.8
2017-Nov-23 15:18 343 4 gusting 8 2.8 7.8
2017-Nov-23 15:12 336 7 gusting 11 3.3 7.8
2017-Nov-23 15:06 313 6 gusting 12 2.8 7.8
2017-Nov-23 15:00 338 6 gusting 9 2.8 7.8
2017-Nov-23 14:54 356 6 gusting 11 3.3 7.8
2017-Nov-23 14:48 012 5 gusting 11 2.8 7.8
2017-Nov-23 14:42 001 6 gusting 9 2.8 7.8
2017-Nov-23 14:36 009 6 gusting 9 2.8 7.8
2017-Nov-23 14:30 023 5 gusting 9 2.8 7.8
2017-Nov-23 14:24 014 6 gusting 10 2.2 7.8
2017-Nov-23 14:18 011 6 gusting 10 1.7 7.8
2017-Nov-23 14:12 347 6 gusting 10 1.7 7.8
2017-Nov-23 14:06 354 6 gusting 9 2.8 7.8
2017-Nov-23 14:00 003 6 gusting 9 2.8 7.8
2017-Nov-23 13:54 356 6 gusting 10 2.2 7.8
2017-Nov-23 13:48 360 4 gusting 8 2.2 7.8
2017-Nov-23 13:42 345 5 gusting 9 2.2 7.8
2017-Nov-23 13:36 345 6 gusting 9 2.2 7.8
2017-Nov-23 13:30 359 6 gusting 10 2.2 7.8
2017-Nov-23 13:24 354 4 gusting 7 2.8 7.8
2017-Nov-23 13:18 358 5 gusting 7 2.2 7.8
2017-Nov-23 13:12 358 4 gusting 7 2.2 7.8
2017-Nov-23 13:06 360 5 gusting 8 2.2 7.8
2017-Nov-23 13:00 353 4 gusting 6 2.2 7.8
2017-Nov-23 12:54 353 3 gusting 6 1.7 7.8
2017-Nov-23 12:48 005 2 gusting 3 1.1 7.8
2017-Nov-23 12:42 329 2 gusting 3 1.1 7.8
2017-Nov-23 12:36 340 1 gusting 3 1.1 7.8
2017-Nov-23 12:30 334 2 gusting 3 1.1 7.8
2017-Nov-23 12:24 341 2 gusting 3 0.6 7.8
2017-Nov-23 12:18 341 2 gusting 4 -0.0 7.8
2017-Nov-23 12:12 324 3 gusting 4 -0.0 7.8
2017-Nov-23 12:06 331 2 gusting 4 -1.7 7.8
2017-Nov-23 12:00 328 3 gusting 5 -2.8 7.8
2017-Nov-23 11:54 331 4 gusting 5 -2.8 7.8
2017-Nov-23 11:48 331 3 gusting 5 -1.7 7.8
2017-Nov-23 11:42 336 3 gusting 6 -1.1 7.8
2017-Nov-23 11:36 337 5 gusting 6 -2.2 8.3
2017-Nov-23 11:30 343 5 gusting 6 -3.3 8.3
2017-Nov-23 11:24 339 5 gusting 6 -3.3 8.3
2017-Nov-23 11:18 346 3 gusting 5 -3.3 8.3
2017-Nov-23 11:12 346 5 gusting 6 -3.3 8.3
2017-Nov-23 11:06 345 3 gusting 6 -1.1 8.3
2017-Nov-23 11:00 347 3 gusting 5 -0.6 8.3
2017-Nov-23 10:54 342 4 gusting 5 -0.6 8.3
2017-Nov-23 10:48 341 3 gusting 5 -0.6 8.3
2017-Nov-23 10:42 350 3 gusting 5 -0.6 8.3
2017-Nov-23 10:36 338 5 gusting 6 -0.6 8.3
2017-Nov-23 10:30 338 4 gusting 5 -0.6 8.3
2017-Nov-23 10:24 330 5 gusting 6 -0.6 8.3
2017-Nov-23 10:18 345 3 gusting 6 -0.6 8.3
2017-Nov-23 10:12 333 5 gusting 6 -0.6 8.3
2017-Nov-23 10:06 343 4 gusting 7 -0.0 8.3
2017-Nov-23 10:00 332 5 gusting 7 -0.0 8.3
2017-Nov-23 09:54 335 4 gusting 7 -0.0 8.3
2017-Nov-23 09:48 340 6 gusting 6 -0.0 8.3
2017-Nov-23 09:42 332 5 gusting 7 -0.0 8.3
2017-Nov-23 09:36 337 5 gusting 7 -0.0 8.3
2017-Nov-23 09:30 329 6 gusting 7 -0.0 8.3
2017-Nov-23 09:24 335 5 gusting 6 -0.0 8.3
2017-Nov-23 09:18 329 5 gusting 7 -0.6 8.3
2017-Nov-23 09:12 332 5 gusting 6 -0.0 8.3
2017-Nov-23 09:06 330 5 gusting 7 -0.0 8.3
2017-Nov-23 09:00 330 5 gusting 6 -0.0 8.3
2017-Nov-23 08:54 341 5 gusting 6 -0.6 8.3
2017-Nov-23 08:48 337 5 gusting 5 -0.6 8.3
2017-Nov-23 08:42 329 4 gusting 7 -0.0 8.3
2017-Nov-23 08:36 321 6 gusting 7 -0.0 8.3
2017-Nov-23 08:30 331 4 gusting 6 -0.0 8.3
2017-Nov-23 08:24 328 6 gusting 6 -0.0 8.3
2017-Nov-23 08:18 339 4 gusting 6 -0.0 8.3
2017-Nov-23 08:12 324 5 gusting 6 -0.0 8.3
2017-Nov-23 08:06 333 3 gusting 6 -0.0 8.3
2017-Nov-23 08:00 322 5 gusting 6 -0.0 8.3
2017-Nov-23 07:54 332 4 gusting 6 -0.6 8.3
2017-Nov-23 07:48 329 5 gusting 6 -0.0 8.3
2017-Nov-23 07:42 337 5 gusting 6 -0.0 8.3
2017-Nov-23 07:36 333 6 gusting 6 -0.0 8.3
2017-Nov-23 07:30 336 4 gusting 6 1.7 8.3
2017-Nov-23 07:24 326 5 gusting 5 2.2 8.3
2017-Nov-23 07:18 330 4 gusting 6 2.2 8.3
2017-Nov-23 07:12 322 4 gusting 4 2.8 8.3
2017-Nov-23 07:06 325 4 gusting 5 2.8 8.3
2017-Nov-23 07:00 314 3 gusting 4 2.8 8.3
2017-Nov-23 06:54 319 3 gusting 4 2.8 8.3
2017-Nov-23 06:48 325 4 gusting 5 2.8 8.3
2017-Nov-23 06:42 322 4 gusting 6 2.8 8.3
2017-Nov-23 06:36 321 4 gusting 6 2.8 8.3
2017-Nov-23 06:30 318 5 gusting 6 2.8 8.3
2017-Nov-23 06:24 327 3 gusting 5 2.8 8.9
2017-Nov-23 06:18 329 5 gusting 6 2.8 8.9
2017-Nov-23 06:12 323 3 gusting 7 2.8 8.9
2017-Nov-23 06:06 328 6 gusting 8 3.3 8.9
2017-Nov-23 06:00 323 6 gusting 7 3.3 8.9
2017-Nov-23 05:54 316 6 gusting 9 3.3 9.4
2017-Nov-23 05:48 320 6 gusting 8 3.3 9.4
2017-Nov-23 05:42 319 6 gusting 9 3.3 9.4
2017-Nov-23 05:36 323 7 gusting 9 3.3 9.4
2017-Nov-23 05:30 315 6 gusting 8 3.9 9.4
2017-Nov-23 05:24 318 7 gusting 9 3.9 9.4
2017-Nov-23 05:18 326 7 gusting 10 3.9 9.4
2017-Nov-23 05:12 323 8 gusting 11 3.9 9.4
2017-Nov-23 05:06 321 9 gusting 11 3.9 9.4
2017-Nov-23 05:00 323 8 gusting 13 3.910.0
2017-Nov-23 04:54 322 9 gusting 12 4.410.0
2017-Nov-23 04:48 323 8 gusting 13 4.410.0
2017-Nov-23 04:42 322 11 gusting 13 4.410.0
2017-Nov-23 04:36 329 9 gusting 13 4.410.0
2017-Nov-23 04:30 323 11 gusting 14 4.410.0
2017-Nov-23 04:24 325 10 gusting 13 4.410.0
2017-Nov-23 04:18 328 11 gusting 13 5.010.0
2017-Nov-23 04:12 323 11 gusting 13 5.010.0
2017-Nov-23 04:06 328 7 gusting 11 4.410.0
2017-Nov-23 04:00 324 8 gusting 12 5.010.0
2017-Nov-23 03:54 329 9 gusting 12 5.010.0
2017-Nov-23 03:48 327 9 gusting 13 5.010.0
2017-Nov-23 03:42 321 10 gusting 13 5.010.0
2017-Nov-23 03:36 323 9 gusting 12 5.010.0
2017-Nov-23 03:30 322 9 gusting 12 5.010.0
2017-Nov-23 03:24 326 9 gusting 12 5.010.0
2017-Nov-23 03:18 327 10 gusting 13 5.610.0
2017-Nov-23 03:12 326 9 gusting 12 5.610.0
2017-Nov-23 03:06 323 10 gusting 12 5.610.6
2017-Nov-23 03:00 322 11 gusting 13 5.610.6
2017-Nov-23 02:54 326 9 gusting 11 5.610.6
2017-Nov-23 02:48 325 9 gusting 12 5.610.6
2017-Nov-23 02:42 323 9 gusting 13 5.610.6
2017-Nov-23 02:36 323 9 gusting 15 6.110.6
2017-Nov-23 02:30 323 12 gusting 16 6.110.6
2017-Nov-23 02:24 322 13 gusting 16 6.110.6
2017-Nov-23 02:18 323 10 gusting 14 6.110.6
2017-Nov-23 02:12 319 13 gusting 16 6.110.6
2017-Nov-23 02:06 320 13 gusting 19 6.710.6
2017-Nov-23 02:00 321 8 gusting 11 6.110.6
2017-Nov-23 01:54 324 10 gusting 13 6.110.6
2017-Nov-23 01:48 323 9 gusting 13 6.710.6
2017-Nov-23 01:42 325 10 gusting 13 6.710.6
2017-Nov-23 01:36 323 11 gusting 13 6.710.6
2017-Nov-23 01:30 320 11 gusting 15 6.710.6
2017-Nov-23 01:24 319 9 gusting 12 6.710.6
2017-Nov-23 01:18 327 8 gusting 13 6.710.6
2017-Nov-23 01:12 322 9 gusting 13 6.710.6
2017-Nov-23 01:06 325 7 gusting 14 6.710.6
2017-Nov-23 01:00 323 11 gusting 15 7.210.0
2017-Nov-23 00:54 319 9 gusting 14 7.210.0
2017-Nov-23 00:48 325 10 gusting 16 7.210.0
2017-Nov-23 00:42 324 10 gusting 14 7.210.0
2017-Nov-23 00:36 328 8 gusting 13 7.210.0
2017-Nov-23 00:30 326 13 gusting 18 7.810.0
2017-Nov-23 00:24 325 12 gusting 16 7.810.0
2017-Nov-23 00:18 331 11 gusting 15 7.810.6
2017-Nov-23 00:12 329 10 gusting 15 7.810.6
2017-Nov-23 00:06 332 12 gusting 16 7.810.6
2017-Nov-22 23:48 322 9 gusting 10 7.810.6
2017-Nov-22 23:42 328 6 gusting 9 7.810.6
2017-Nov-22 23:36 324 5 gusting 11 7.810.6
2017-Nov-22 23:30 325 8 gusting 13 7.810.6
2017-Nov-22 23:24 322 10 gusting 13 8.310.6
2017-Nov-22 23:18 327 7 gusting 10 7.810.6
2017-Nov-22 23:12 328 9 gusting 13 7.810.6
2017-Nov-22 23:06 319 11 gusting 13 8.310.6
2017-Nov-22 23:00 326 7 gusting 11 8.310.6
2017-Nov-22 22:54 326 6 gusting 12 8.310.6
2017-Nov-22 22:48 327 9 gusting 12 8.310.6
2017-Nov-22 22:42 330 9 gusting 13 8.310.6
2017-Nov-22 22:36 331 8 gusting 12 8.310.6
2017-Nov-22 22:30 329 8 gusting 11 8.310.6
2017-Nov-22 22:24 330 9 gusting 12 8.910.6
2017-Nov-22 22:18 333 8 gusting 13 8.910.6
2017-Nov-22 22:12 336 8 gusting 13 8.910.6
2017-Nov-22 22:06 327 6 gusting 13 8.911.1
2017-Nov-22 22:00 331 9 gusting 12 9.411.1
2017-Nov-22 21:54 328 9 gusting 14 9.411.1
2017-Nov-22 21:48 322 10 gusting 16 9.411.1
2017-Nov-22 21:42 317 13 gusting 17 9.411.1
2017-Nov-22 21:36 321 12 gusting 15 10.011.1
2017-Nov-22 21:30 328 11 gusting 17 10.011.1
2017-Nov-22 21:24 322 14 gusting 17 10.011.1
2017-Nov-22 21:18 333 13 gusting 21 10.011.7
2017-Nov-22 21:12 335 17 gusting 23 10.611.7
2017-Nov-22 21:06 338 14 gusting 18 10.611.7
2017-Nov-22 21:00 328 16 gusting 22 10.611.7
2017-Nov-22 20:54 320 15 gusting 23 11.111.7
2017-Nov-22 20:48 319 19 gusting 22 11.111.7
2017-Nov-22 20:42 319 14 gusting 21 11.111.7
2017-Nov-22 20:36 314 19 gusting 22 11.111.7
2017-Nov-22 20:30 317 16 gusting 23 11.711.7
2017-Nov-22 20:24 310 18 gusting 24 11.711.7
2017-Nov-22 20:18 316 16 gusting 25 11.711.7
2017-Nov-22 20:12 316 19 gusting 23 11.711.7
2017-Nov-22 20:06 323 14 gusting 24 11.711.7
2017-Nov-22 20:00 319 14 gusting 22 12.211.7
2017-Nov-22 19:54 317 19 gusting 24 12.211.7
2017-Nov-22 19:48 319 19 gusting 26 12.211.7
2017-Nov-22 19:42 319 14 gusting 23 12.211.7
2017-Nov-22 19:36 315 16 gusting 21 12.811.7
2017-Nov-22 19:30 318 15 gusting 20 12.811.7
2017-Nov-22 19:24 332 15 gusting 24 12.811.7
2017-Nov-22 19:18 310 18 gusting 20 12.811.7
2017-Nov-22 19:12 325 17 gusting 25 12.811.7
2017-Nov-22 19:06 313 18 gusting 22 12.811.7
2017-Nov-22 19:00 321 17 gusting 22 12.811.7
2017-Nov-22 18:54 317 16 gusting 22 13.311.7
2017-Nov-22 18:48 311 17 gusting 25 12.811.7
2017-Nov-22 18:42 314 16 gusting 23 13.311.7
2017-Nov-22 18:36 320 20 gusting 26 13.311.7
2017-Nov-22 18:30 314 20 gusting 25 13.311.7
2017-Nov-22 18:24 310 18 gusting 24 13.311.7
2017-Nov-22 18:18 308 19 gusting 26 13.311.7
2017-Nov-22 18:12 321 18 gusting 26 13.911.1
2017-Nov-22 18:06 312 18 gusting 24 13.911.1
2017-Nov-22 18:00 314 18 gusting 22 13.911.1
2017-Nov-22 17:54 311 19 gusting 25 13.911.1
2017-Nov-22 17:48 325 19 gusting 26 13.911.1
2017-Nov-22 17:42 320 19 gusting 23 14.411.1
2017-Nov-22 17:36 317 18 gusting 24 14.411.1
2017-Nov-22 17:30 324 18 gusting 25 14.411.1
2017-Nov-22 17:24 322 18 gusting 25 14.411.1
2017-Nov-22 17:18 318 18 gusting 26 14.411.1
2017-Nov-22 17:12 314 20 gusting 26 14.411.1
2017-Nov-22 17:06 322 18 gusting 23 14.411.1
2017-Nov-22 17:00 325 12 gusting 20 15.010.6
2017-Nov-22 16:54 316 15 gusting 19 14.410.6
2017-Nov-22 16:48 326 13 gusting 21 14.410.6
2017-Nov-22 16:42 324 13 gusting 23 14.410.6
2017-Nov-22 16:36 327 15 gusting 19 14.410.6
2017-Nov-22 16:30 322 13 gusting 19 14.410.6
2017-Nov-22 16:24 327 13 gusting 22 14.410.6
2017-Nov-22 16:18 318 17 gusting 19 14.410.0
2017-Nov-22 16:12 328 13 gusting 18 14.410.0
2017-Nov-22 16:06 328 12 gusting 15 13.910.0
2017-Nov-22 16:00 325 12 gusting 18 13.910.0
2017-Nov-22 15:54 324 14 gusting 19 13.310.0
2017-Nov-22 15:48 320 13 gusting 19 13.9 9.4
2017-Nov-22 15:42 328 13 gusting 17 13.3 9.4
2017-Nov-22 15:36 332 11 gusting 16 13.3 9.4
2017-Nov-22 15:30 331 13 gusting 17 12.8 9.4
2017-Nov-22 15:24 332 12 gusting 18 12.8 9.4
2017-Nov-22 15:18 334 11 gusting 15 12.8 9.4
2017-Nov-22 15:12 327 11 gusting 16 12.2 9.4
2017-Nov-22 15:06 327 11 gusting 16 12.2 9.4
2017-Nov-22 15:00 330 10 gusting 18 12.8 9.4
2017-Nov-22 14:54 327 11 gusting 18 12.2 9.4
2017-Nov-22 14:48 329 12 gusting 16 12.8 9.4
2017-Nov-22 14:42 328 10 gusting 16 12.8 9.4
2017-Nov-22 14:36 330 12 gusting 14 12.8 9.4
2017-Nov-22 14:30 324 9 gusting 16 12.8 9.4
2017-Nov-22 14:24 318 11 gusting 13 12.8 9.4
2017-Nov-22 14:18 316 9 gusting 14 12.2 9.4
2017-Nov-22 14:12 317 11 gusting 14 12.2 9.4
2017-Nov-22 14:06 316 10 gusting 13 12.2 9.4
2017-Nov-22 14:00 314 9 gusting 12 12.2 9.4
2017-Nov-22 13:54 315 9 gusting 13 12.2 9.4
2017-Nov-22 13:48 307 9 gusting 11 11.7 9.4
2017-Nov-22 13:42 304 9 gusting 11 11.7 9.4
2017-Nov-22 13:36 304 10 gusting 13 11.7 9.4
2017-Nov-22 13:30 302 9 gusting 12 11.7 9.4
2017-Nov-22 13:24 301 10 gusting 13 12.2 9.4
2017-Nov-22 13:18 308 9 gusting 11 11.7 9.4
2017-Nov-22 13:12 303 10 gusting 11 12.2 9.4
2017-Nov-22 13:06 300 9 gusting 13 11.7 9.4
2017-Nov-22 13:00 296 11 gusting 13 11.7 9.4
2017-Nov-22 12:54 299 9 gusting 10 11.7 9.4
2017-Nov-22 12:48 287 7 gusting 9 11.7 9.4
2017-Nov-22 12:42 282 9 gusting 10 11.7 9.4
2017-Nov-22 12:36 264 6 gusting 7 11.7 9.4
2017-Nov-22 12:30 261 3 gusting 6 11.7 9.4
2017-Nov-22 12:24 240 4 gusting 5 11.7 9.4
2017-Nov-22 12:18 237 1 gusting 4 11.7 9.4
2017-Nov-22 12:12 204 3 gusting 4 11.7 9.4
2017-Nov-22 12:06 181 3 gusting 5 11.1 9.4
2017-Nov-22 12:00 206 4 gusting 5 11.1 9.4
2017-Nov-22 11:54 243 3 gusting 5 11.7 9.4
2017-Nov-22 11:48 251 5 gusting 6 11.7 9.4
2017-Nov-22 11:42 261 3 gusting 6 11.7 9.4
2017-Nov-22 11:36 265 5 gusting 6 11.7 9.4
2017-Nov-22 11:30 276 4 gusting 6 11.7 9.4
2017-Nov-22 11:24 295 6 gusting 7 11.7 9.4
2017-Nov-22 11:18 293 6 gusting 6 11.7 9.4
2017-Nov-22 11:12 300 5 gusting 7 11.7 9.4
2017-Nov-22 11:06 301 6 gusting 9 11.7 9.4
2017-Nov-22 11:00 305 7 gusting 8 11.7 9.4
2017-Nov-22 10:54 298 7 gusting 10 11.1 9.4
2017-Nov-22 10:48 299 8 gusting 11 11.1 9.4
2017-Nov-22 10:42 295 9 gusting 11 11.1 9.4
2017-Nov-22 10:36 298 10 gusting 13 11.1 9.4
2017-Nov-22 10:30 300 12 gusting 13 11.7 9.4
2017-Nov-22 10:24 298 11 gusting 12 11.7 9.4
2017-Nov-22 10:18 294 11 gusting 16 11.7 9.4
2017-Nov-22 10:12 291 14 gusting 23 11.7 9.4
2017-Nov-22 10:06 273 20 gusting 25 12.8 9.4
2017-Nov-22 10:00 262 13 gusting 14 12.8 9.4
2017-Nov-22 09:54 182 6 gusting 9 11.1 9.4
2017-Nov-22 09:48 154 8 gusting 9 11.7 9.4
2017-Nov-22 09:42 143 9 gusting 10 11.7 9.4
2017-Nov-22 09:36 142 9 gusting 10 11.7 9.4
2017-Nov-22 09:30 147 9 gusting 9 11.7 9.4
2017-Nov-22 09:24 152 8 gusting 8 11.7 9.4
2017-Nov-22 09:18 157 7 gusting 11 11.7 9.4
2017-Nov-22 09:12 157 10 gusting 11 12.2 9.4
2017-Nov-22 09:06 156 9 gusting 12 11.7 9.4
2017-Nov-22 09:00 160 10 gusting 13 12.2 9.4
2017-Nov-22 08:54 164 11 gusting 12 12.2 9.4
2017-Nov-22 08:48 165 10 gusting 14 12.2 9.4
2017-Nov-22 08:42 156 13 gusting 14 12.8 9.4
2017-Nov-22 08:36 148 8 gusting 9 12.2 9.4
2017-Nov-22 08:30 143 6 gusting 8 12.2 9.4
2017-Nov-22 08:24 138 6 gusting 7 11.7 9.4
2017-Nov-22 08:18 139 6 gusting 6 11.7 9.4
2017-Nov-22 08:12 143 5 gusting 7 11.7 9.4
2017-Nov-22 08:06 105 6 gusting 6 11.7 9.4
2017-Nov-22 08:00 085 5 gusting 6 11.7 9.4
2017-Nov-22 07:54 053 3 gusting 4 11.7 9.4
2017-Nov-22 07:48 036 3 gusting 4 12.2 9.4
2017-Nov-22 07:42 050 2 gusting 4 12.8 9.4
2017-Nov-22 07:36 025 2 gusting 4 12.8 9.4
2017-Nov-22 07:30 342 3 gusting 6 12.8 9.4
2017-Nov-22 07:24 313 6 gusting 8 12.8 9.4
2017-Nov-22 07:18 295 7 gusting 13 12.8 9.4
2017-Nov-22 07:12 293 9 gusting 12 12.8 9.4
2017-Nov-22 07:06 265 8 gusting 12 12.2 9.4
2017-Nov-22 07:00 270 9 gusting 10 11.7 9.4